Time;durP1;ratioP1;P1;durP2;ratioP2;P2;SDS_P1;SDS_P2;PMS_P1;PMS_P2;Temp;Humidity;BMP_temperature;BMP_pressure;BME280_temperature;BME280_humidity;BME280_pressure;Samples;Min_cycle;Max_cycle;Signal;HPM_P1;HPM_P2
2021/04/07 00:02:15;;;;;;;1.50;1.40;;;2.80;99.90;;;;;;4991525;28;20213;-83
2021/04/07 00:04:41;;;;;;;0.10;0.10;;;2.70;99.90;;;;;;5014491;28;20187;-84
2021/04/07 00:07:07;;;;;;;0.53;0.40;;;2.80;99.90;;;;;;5013816;28;20245;-84
2021/04/07 00:09:32;;;;;;;0.97;0.10;;;2.80;99.90;;;;;;4996480;28;20220;-83
2021/04/07 00:12:18;;;;;;;0.10;0.10;;;2.80;99.90;;;;;;5014120;28;20230;-83
2021/04/07 00:14:44;;;;;;;0.10;0.10;;;2.80;99.90;;;;;;4985682;28;20209;-83
2021/04/07 00:17:09;;;;;;;0.10;0.10;;;2.80;99.90;;;;;;4996517;28;20188;-84
2021/04/07 00:19:35;;;;;;;1.37;0.43;;;2.70;99.90;;;;;;5008852;28;20196;-85
2021/04/07 00:22:00;;;;;;;0.00;0.00;;;2.80;99.90;;;;;;4993611;28;20204;-83
2021/04/07 00:24:35;;;;;;;0.10;0.10;;;2.80;99.90;;;;;;4995958;28;20266;-83
2021/04/07 00:27:06;;;;;;;0.83;0.30;;;2.70;99.90;;;;;;4996275;28;20200;-83
2021/04/07 00:29:32;;;;;;;0.10;0.10;;;2.80;99.90;;;;;;4994460;28;20198;-84
2021/04/07 00:31:58;;;;;;;0.50;0.20;;;2.80;99.90;;;;;;5003973;28;20212;-85
2021/04/07 00:34:23;;;;;;;0.93;0.37;;;2.80;99.90;;;;;;4992896;28;20345;-83
2021/04/07 00:36:49;;;;;;;0.13;0.13;;;2.90;99.90;;;;;;4979217;28;20188;-83
2021/04/07 00:39:14;;;;;;;0.10;0.10;;;3.00;99.90;;;;;;4995851;28;20285;-84
2021/04/07 00:41:40;;;;;;;0.30;0.30;;;3.00;99.90;;;;;;5004589;28;20209;-84
2021/04/07 00:44:06;;;;;;;1.30;1.13;;;2.90;99.90;;;;;;4995793;28;20197;-83
2021/04/07 00:46:35;;;;;;;0.03;0.03;;;3.00;99.90;;;;;;5013346;28;20188;-84
2021/04/07 00:49:01;;;;;;;0.93;0.93;;;2.90;99.90;;;;;;4995651;28;20215;-83
2021/04/07 00:51:27;;;;;;;0.10;0.10;;;2.90;99.90;;;;;;5028685;28;20254;-84
2021/04/07 00:53:53;;;;;;;0.30;0.30;;;2.90;99.90;;;;;;4995907;28;20202;-83
2021/04/07 00:56:19;;;;;;;0.20;0.20;;;2.80;99.90;;;;;;4995014;28;20190;-84
2021/04/07 00:58:45;;;;;;;0.00;0.00;;;2.70;99.90;;;;;;4991758;28;20652;-83
2021/04/07 01:01:11;;;;;;;0.17;0.17;;;2.70;99.90;;;;;;5023097;28;20207;-83
2021/04/07 01:03:36;;;;;;;0.10;0.10;;;2.60;99.90;;;;;;5013245;28;20672;-82
2021/04/07 01:06:03;;;;;;;0.43;0.17;;;2.60;99.90;;;;;;4986736;28;20265;-83
2021/04/07 01:08:28;;;;;;;0.10;0.10;;;2.50;99.90;;;;;;4995071;28;20223;-83
2021/04/07 01:10:58;;;;;;;0.57;0.37;;;2.60;99.90;;;;;;4995653;28;20213;-82
2021/04/07 01:13:24;;;;;;;0.10;0.10;;;2.60;99.90;;;;;;4993436;28;20203;-84
2021/04/07 01:15:49;;;;;;;0.20;0.20;;;2.60;99.90;;;;;;4983369;28;20249;-84
2021/04/07 01:18:15;;;;;;;0.00;0.00;;;2.70;99.90;;;;;;4995403;28;20191;-83
2021/04/07 01:20:41;;;;;;;0.10;0.10;;;2.70;99.90;;;;;;5008152;28;20212;-83
2021/04/07 01:23:07;;;;;;;0.10;0.10;;;2.80;99.90;;;;;;4995428;28;20192;-84
2021/04/07 01:25:33;;;;;;;0.30;0.30;;;2.80;99.90;;;;;;5018295;28;20191;-83
2021/04/07 01:28:02;;;;;;;0.20;0.20;;;2.70;99.90;;;;;;4995571;28;20304;-83
2021/04/07 01:30:28;;;;;;;0.00;0.00;;;2.60;99.90;;;;;;5003703;28;20682;-84
2021/04/07 01:32:53;;;;;;;0.00;0.00;;;2.60;99.90;;;;;;5003769;28;20210;-84
2021/04/07 01:35:20;;;;;;;0.10;0.10;;;2.60;99.90;;;;;;5010138;28;20592;-83
2021/04/07 01:37:46;;;;;;;0.30;0.10;;;2.60;99.90;;;;;;4986171;28;20211;-84
2021/04/07 01:40:16;;;;;;;0.23;0.23;;;2.60;99.90;;;;;;4995063;28;20179;-83
2021/04/07 01:42:43;;;;;;;0.10;0.10;;;2.70;99.90;;;;;;5004252;28;20379;-84
2021/04/07 01:48:34;;;;;;;0.13;0.13;;;2.70;99.90;;;;;;5003540;28;20202;-84
2021/04/07 01:51:00;;;;;;;0.00;0.00;;;2.70;99.90;;;;;;5004190;28;20219;-85
2021/04/07 01:53:26;;;;;;;0.20;0.20;;;2.70;99.90;;;;;;4995080;28;20215;-84
2021/04/07 01:58:27;;;;;;;3.80;0.40;;;2.80;99.90;;;;;;5176878;23;20262;-81
2021/04/07 02:03:22;;;;;;;0.10;0.10;;;2.80;99.90;;;;;;4967285;28;20234;-81
2021/04/07 02:05:48;;;;;;;0.10;0.10;;;2.80;99.90;;;;;;4977760;28;20552;-81
2021/04/07 02:08:13;;;;;;;0.10;0.10;;;2.90;99.90;;;;;;4974687;28;20196;-80
2021/04/07 02:10:39;;;;;;;0.10;0.10;;;2.90;99.90;;;;;;4961792;28;20190;-80
2021/04/07 02:13:05;;;;;;;0.33;0.33;;;3.00;99.90;;;;;;4971909;28;20593;-79
2021/04/07 02:15:31;;;;;;;0.00;0.00;;;3.00;99.90;;;;;;4960021;28;20232;-81
2021/04/07 02:17:57;;;;;;;0.10;0.10;;;3.10;99.90;;;;;;4969964;28;20701;-79
2021/04/07 02:20:22;;;;;;;0.83;0.30;;;3.10;99.90;;;;;;4970665;28;20261;-80
2021/04/07 02:22:50;;;;;;;0.00;0.00;;;3.10;99.90;;;;;;4961917;28;20221;-81
2021/04/07 02:25:16;;;;;;;0.00;0.00;;;3.00;99.90;;;;;;4951752;28;20185;-81
2021/04/07 02:27:42;;;;;;;0.30;0.10;;;3.00;99.90;;;;;;4954001;28;20187;-81
2021/04/07 02:30:11;;;;;;;0.17;0.17;;;3.00;99.90;;;;;;4966638;28;20206;-81
2021/04/07 02:32:36;;;;;;;0.30;0.30;;;3.00;99.90;;;;;;4951203;28;20211;-79
2021/04/07 02:35:03;;;;;;;0.20;0.10;;;3.00;99.90;;;;;;4962942;28;20185;-81
2021/04/07 02:37:28;;;;;;;0.10;0.10;;;3.10;99.90;;;;;;4954778;28;20705;-81
2021/04/07 02:39:54;;;;;;;0.00;0.00;;;3.10;99.90;;;;;;4954707;28;20189;-81
2021/04/07 02:42:21;;;;;;;0.10;0.10;;;3.10;99.90;;;;;;4970955;28;20637;-80
2021/04/07 02:44:47;;;;;;;0.13;0.13;;;3.10;99.90;;;;;;4975377;28;20194;-81
2021/04/07 02:47:13;;;;;;;0.00;0.00;;;3.20;99.90;;;;;;4955525;28;20275;-81
2021/04/07 02:49:39;;;;;;;0.00;0.00;;;3.00;99.90;;;;;;4956824;28;20623;-81
2021/04/07 02:52:05;;;;;;;0.00;0.00;;;2.90;99.90;;;;;;4970687;28;20226;-81
2021/04/07 02:54:32;;;;;;;0.00;0.00;;;2.90;99.90;;;;;;4962832;28;20187;-81
2021/04/07 02:56:57;;;;;;;0.10;0.10;;;2.90;99.90;;;;;;4967165;28;20191;-81
2021/04/07 02:59:23;;;;;;;0.10;0.10;;;2.90;99.90;;;;;;4949506;28;20242;-81
2021/04/07 03:01:48;;;;;;;0.00;0.00;;;2.90;99.90;;;;;;4953577;28;20209;-81
2021/04/07 03:04:14;;;;;;;0.20;0.20;;;2.90;99.90;;;;;;4944575;28;20273;-79
2021/04/07 03:06:41;;;;;;;0.30;0.30;;;2.90;99.90;;;;;;4957042;28;20193;-81
2021/04/07 03:09:06;;;;;;;0.30;0.30;;;2.70;99.90;;;;;;4958986;28;20216;-80
2021/04/07 03:11:34;;;;;;;0.63;0.20;;;2.70;99.90;;;;;;4974383;28;20289;-81
2021/04/07 03:13:59;;;;;;;0.10;0.10;;;2.70;99.90;;;;;;4958971;28;20241;-81
2021/04/07 03:16:25;;;;;;;0.77;0.50;;;2.70;99.90;;;;;;4970951;28;20200;-81
2021/04/07 03:18:51;;;;;;;0.10;0.10;;;2.70;99.90;;;;;;4944268;28;20216;-79
2021/04/07 03:21:16;;;;;;;0.53;0.40;;;2.60;99.90;;;;;;4952028;28;20680;-81
2021/04/07 03:23:42;;;;;;;0.17;0.17;;;2.60;99.90;;;;;;4974568;28;20192;-81
2021/04/07 03:26:07;;;;;;;0.10;0.10;;;2.60;99.90;;;;;;4977385;28;20197;-80
2021/04/07 03:28:33;;;;;;;0.00;0.00;;;2.60;99.90;;;;;;4949228;28;20194;-80
2021/04/07 03:30:59;;;;;;;0.10;0.10;;;2.60;99.90;;;;;;4952793;28;20197;-81
2021/04/07 03:33:31;;;;;;;0.10;0.10;;;2.70;99.90;;;;;;4955599;28;20292;-81
2021/04/07 03:35:58;;;;;;;0.07;0.07;;;2.70;99.90;;;;;;4964834;28;20218;-81
2021/04/07 03:38:24;;;;;;;0.00;0.00;;;2.70;99.90;;;;;;4964377;28;20184;-81
2021/04/07 03:40:50;;;;;;;0.10;0.10;;;2.70;99.90;;;;;;4961629;28;20534;-81
2021/04/07 03:43:19;;;;;;;0.17;0.17;;;2.80;99.90;;;;;;4960210;28;20207;-81
2021/04/07 03:45:46;;;;;;;0.30;0.23;;;2.80;99.90;;;;;;4952904;28;20260;-81
2021/04/07 03:48:13;;;;;;;0.07;0.07;;;2.70;99.90;;;;;;4958099;28;20234;-81
2021/04/07 03:50:39;;;;;;;0.20;0.20;;;2.80;99.90;;;;;;4952396;28;20195;-81
2021/04/07 03:53:06;;;;;;;0.27;0.27;;;2.80;99.90;;;;;;4956638;28;20714;-81
2021/04/07 03:55:31;;;;;;;0.20;0.20;;;2.80;99.90;;;;;;4944774;28;20190;-81
2021/04/07 03:57:57;;;;;;;0.07;0.07;;;2.70;99.90;;;;;;4949300;28;20247;-81
2021/04/07 04:00:23;;;;;;;0.10;0.10;;;2.70;99.90;;;;;;4964677;28;20721;-80
2021/04/07 04:02:48;;;;;;;0.00;0.00;;;2.60;99.90;;;;;;4973894;28;20244;-80
2021/04/07 04:05:14;;;;;;;0.00;0.00;;;2.70;99.90;;;;;;4957387;28;20215;-80
2021/04/07 04:07:40;;;;;;;0.00;0.00;;;2.70;99.90;;;;;;4945327;28;20200;-81
2021/04/07 04:10:06;;;;;;;0.03;0.03;;;2.70;99.90;;;;;;4950680;28;20367;-81
2021/04/07 04:12:32;;;;;;;1.50;0.20;;;2.80;99.90;;;;;;4963861;28;20220;-81
2021/04/07 04:14:57;;;;;;;2.03;0.20;;;2.80;99.90;;;;;;4938696;29;20197;-81
2021/04/07 04:17:23;;;;;;;0.10;0.10;;;2.80;99.90;;;;;;4979278;28;20192;-81
2021/04/07 04:19:49;;;;;;;0.20;0.20;;;2.90;99.90;;;;;;4968568;28;20190;-81
2021/04/07 04:22:15;;;;;;;0.10;0.10;;;2.80;99.90;;;;;;4946004;28;20275;-80
2021/04/07 04:24:42;;;;;;;0.00;0.00;;;2.90;99.90;;;;;;4938272;29;20197;-81
2021/04/07 04:27:07;;;;;;;0.10;0.10;;;2.90;99.90;;;;;;4951707;28;20188;-80
2021/04/07 04:29:33;;;;;;;0.10;0.10;;;3.00;99.90;;;;;;4972104;28;20203;-80
2021/04/07 04:31:59;;;;;;;0.10;0.10;;;3.00;99.90;;;;;;4956364;28;20637;-81
2021/04/07 04:34:24;;;;;;;0.00;0.00;;;3.00;99.90;;;;;;4947812;29;20214;-81
2021/04/07 04:36:50;;;;;;;0.00;0.00;;;2.90;99.90;;;;;;4966208;28;20251;-81
2021/04/07 04:39:15;;;;;;;0.00;0.00;;;2.90;99.90;;;;;;4956778;28;20269;-80
2021/04/07 04:41:41;;;;;;;0.87;0.87;;;2.90;99.90;;;;;;4955883;28;20567;-81
2021/04/07 04:44:06;;;;;;;0.20;0.20;;;2.90;99.90;;;;;;4951637;28;20190;-81
2021/04/07 04:46:32;;;;;;;0.03;0.03;;;2.90;99.90;;;;;;4968303;28;20197;-80
2021/04/07 04:48:58;;;;;;;0.23;0.13;;;2.80;99.90;;;;;;4951131;28;20698;-79
2021/04/07 04:51:23;;;;;;;0.30;0.30;;;2.80;99.90;;;;;;4972902;28;20263;-81
2021/04/07 04:53:49;;;;;;;0.10;0.10;;;2.80;99.90;;;;;;4972563;28;20222;-78
2021/04/07 04:56:14;;;;;;;1.83;0.23;;;2.80;99.90;;;;;;4951822;28;20254;-81
2021/04/07 04:58:40;;;;;;;0.20;0.20;;;2.90;99.90;;;;;;4962520;28;20189;-81
2021/04/07 05:01:06;;;;;;;0.07;0.07;;;2.90;99.90;;;;;;4956494;28;21469;-80
2021/04/07 05:03:31;;;;;;;0.00;0.00;;;2.90;99.90;;;;;;4969147;28;20196;-84
2021/04/07 05:05:57;;;;;;;2.33;0.77;;;2.90;99.90;;;;;;4956070;28;20199;-84
2021/04/07 05:08:22;;;;;;;0.00;0.00;;;2.90;99.90;;;;;;4973544;28;20558;-83
2021/04/07 05:10:48;;;;;;;0.10;0.10;;;2.90;99.90;;;;;;4972416;28;20301;-84
2021/04/07 05:13:14;;;;;;;0.07;0.07;;;2.90;99.90;;;;;;4955942;28;20223;-84
2021/04/07 05:15:40;;;;;;;0.10;0.10;;;2.80;99.90;;;;;;4970049;28;20188;-85
2021/04/07 05:18:17;;;;;;;1.13;1.03;;;2.70;99.90;;;;;;4947153;28;20728;-80
2021/04/07 05:20:43;;;;;;;0.10;0.10;;;2.70;99.90;;;;;;4951774;28;20743;-81
2021/04/07 05:23:09;;;;;;;0.17;0.17;;;2.70;99.90;;;;;;4980021;28;20671;-81
2021/04/07 05:25:36;;;;;;;0.10;0.10;;;2.50;99.90;;;;;;4953002;28;20188;-80
2021/04/07 05:28:06;;;;;;;0.00;0.00;;;2.40;99.90;;;;;;4959963;28;20190;-81
2021/04/07 05:33:18;;;;;;;0.10;0.10;;;2.40;99.90;;;;;;4971804;28;20636;-81
2021/04/07 05:35:43;;;;;;;0.00;0.00;;;2.40;99.90;;;;;;4949352;28;20227;-81
2021/04/07 05:38:09;;;;;;;0.20;0.20;;;2.40;99.90;;;;;;4957362;28;20647;-79
2021/04/07 05:40:35;;;;;;;0.10;0.10;;;2.40;99.90;;;;;;4949716;28;20192;-84
2021/04/07 05:43:04;;;;;;;0.10;0.10;;;2.50;99.90;;;;;;4965210;28;20688;-85
2021/04/07 05:45:30;;;;;;;0.00;0.00;;;2.50;99.90;;;;;;4956017;28;20191;-81
2021/04/07 05:47:56;;;;;;;0.10;0.10;;;2.60;99.90;;;;;;4973064;28;20192;-81
2021/04/07 05:50:22;;;;;;;0.13;0.13;;;2.60;99.90;;;;;;4965018;28;20196;-81
2021/04/07 05:52:51;;;;;;;0.20;0.20;;;2.70;99.90;;;;;;4952111;28;20247;-80
2021/04/07 05:55:20;;;;;;;0.00;0.00;;;2.70;99.90;;;;;;4950634;28;20675;-81
2021/04/07 05:57:59;;;;;;;0.50;0.50;;;2.80;99.90;;;;;;4964402;28;20676;-82
2021/04/07 06:00:25;;;;;;;0.10;0.10;;;2.80;99.90;;;;;;4963206;28;20249;-81
2021/04/07 06:02:53;;;;;;;0.10;0.10;;;2.80;99.90;;;;;;4946272;28;20689;-81
2021/04/07 06:05:19;;;;;;;0.03;0.03;;;2.90;99.90;;;;;;4947011;28;20675;-81
2021/04/07 06:07:45;;;;;;;0.00;0.00;;;2.90;99.90;;;;;;4946514;28;20216;-81
2021/04/07 06:10:11;;;;;;;0.37;0.37;;;3.00;99.90;;;;;;4950054;28;20191;-81
2021/04/07 06:12:36;;;;;;;0.10;0.10;;;3.10;99.90;;;;;;4950876;28;20212;-82
2021/04/07 06:15:04;;;;;;;0.10;0.10;;;3.10;99.90;;;;;;4946211;28;20264;-81
2021/04/07 06:17:29;;;;;;;0.20;0.20;;;3.10;99.90;;;;;;4950750;28;20195;-81
2021/04/07 06:19:55;;;;;;;0.30;0.10;;;3.00;99.90;;;;;;4969109;28;20570;-81
2021/04/07 06:22:20;;;;;;;0.10;0.10;;;3.00;99.90;;;;;;4970263;28;20556;-80
2021/04/07 06:24:46;;;;;;;0.10;0.10;;;3.00;99.90;;;;;;4948142;28;20675;-81
2021/04/07 06:27:11;;;;;;;0.10;0.10;;;3.10;99.90;;;;;;4967758;28;20195;-81
2021/04/07 06:29:37;;;;;;;0.10;0.10;;;3.10;99.90;;;;;;4949677;28;20217;-81
2021/04/07 06:32:03;;;;;;;0.10;0.10;;;3.20;99.90;;;;;;4952342;28;20198;-81
2021/04/07 06:34:28;;;;;;;0.10;0.10;;;3.20;99.90;;;;;;4948066;28;20216;-84
2021/04/07 06:36:54;;;;;;;0.10;0.10;;;3.10;99.90;;;;;;4948651;28;20232;-81
2021/04/07 06:39:20;;;;;;;0.00;0.00;;;3.00;99.90;;;;;;4954716;28;20238;-81
2021/04/07 06:41:45;;;;;;;0.10;0.10;;;3.00;99.90;;;;;;4950287;28;20269;-81
2021/04/07 06:44:12;;;;;;;0.30;0.30;;;3.10;99.90;;;;;;4949574;28;20182;-81
2021/04/07 06:46:38;;;;;;;0.10;0.10;;;3.20;99.90;;;;;;4945938;28;20217;-81
2021/04/07 06:49:05;;;;;;;0.10;0.10;;;3.20;99.90;;;;;;4962019;28;20202;-84
2021/04/07 06:51:36;;;;;;;0.10;0.10;;;3.10;99.90;;;;;;4943972;28;20549;-85
2021/04/07 06:54:04;;;;;;;0.10;0.10;;;3.10;99.90;;;;;;4965981;28;20245;-81
2021/04/07 06:56:30;;;;;;;0.60;0.60;;;3.20;99.90;;;;;;4952318;28;20185;-80
2021/04/07 06:58:58;;;;;;;0.43;0.43;;;3.20;99.90;;;;;;4945025;28;20712;-81
2021/04/07 07:01:24;;;;;;;0.10;0.10;;;3.20;99.90;;;;;;4963889;28;20237;-80
2021/04/07 07:03:49;;;;;;;0.50;0.50;;;3.20;99.90;;;;;;4956967;28;20216;-82
2021/04/07 07:06:16;;;;;;;0.10;0.10;;;3.20;99.90;;;;;;4948351;28;20195;-81
2021/04/07 07:08:42;;;;;;;0.20;0.20;;;3.20;99.90;;;;;;4946447;28;20608;-81
2021/04/07 07:11:17;;;;;;;0.10;0.10;;;3.20;99.90;;;;;;4967708;28;20185;-81
2021/04/07 07:13:43;;;;;;;0.00;0.00;;;3.10;99.90;;;;;;4952723;28;20215;-82
2021/04/07 07:16:09;;;;;;;0.20;0.13;;;3.10;99.90;;;;;;4963679;28;20185;-80
2021/04/07 07:18:35;;;;;;;0.13;0.13;;;3.20;99.90;;;;;;4970553;28;20186;-81
2021/04/07 07:21:01;;;;;;;1.47;0.63;;;3.20;99.90;;;;;;4961399;28;20257;-82
2021/04/07 07:23:26;;;;;;;0.30;0.30;;;3.30;99.90;;;;;;4952681;28;20618;-80
2021/04/07 07:26:00;;;;;;;0.00;0.00;;;3.30;99.90;;;;;;4958396;28;20588;-81
2021/04/07 07:28:27;;;;;;;0.10;0.10;;;3.30;99.90;;;;;;4959966;28;20275;-82
2021/04/07 07:30:53;;;;;;;0.00;0.00;;;3.40;99.90;;;;;;4956281;28;20219;-81
2021/04/07 07:33:21;;;;;;;0.10;0.10;;;3.40;99.90;;;;;;4968197;28;20244;-82
2021/04/07 07:35:49;;;;;;;0.10;0.10;;;3.70;99.90;;;;;;4973135;28;20178;-79
2021/04/07 07:38:23;;;;;;;0.60;0.23;;;4.10;99.90;;;;;;4966483;28;20256;-80
2021/04/07 07:40:57;;;;;;;0.10;0.10;;;4.20;99.90;;;;;;4961517;28;20255;-79
2021/04/07 07:43:23;;;;;;;0.20;0.20;;;4.40;99.90;;;;;;4969807;28;20206;-81
2021/04/07 07:45:48;;;;;;;0.10;0.10;;;4.60;99.90;;;;;;4967083;28;20192;-82
2021/04/07 07:48:19;;;;;;;0.20;0.20;;;4.70;99.90;;;;;;4959149;28;20227;-81
2021/04/07 07:50:46;;;;;;;0.00;0.00;;;4.80;99.90;;;;;;4945496;28;20181;-82
2021/04/07 07:53:18;;;;;;;0.10;0.10;;;4.90;99.90;;;;;;4940914;28;20630;-81
2021/04/07 07:55:45;;;;;;;0.23;0.03;;;5.00;99.90;;;;;;4958641;28;20220;-81
2021/04/07 07:58:11;;;;;;;0.00;0.00;;;5.00;99.90;;;;;;4960283;28;20185;-82
2021/04/07 08:00:37;;;;;;;0.10;0.10;;;4.90;99.90;;;;;;4952289;28;20557;-84
2021/04/07 08:03:15;;;;;;;0.10;0.10;;;4.80;99.90;;;;;;4951263;28;20208;-80
2021/04/07 08:05:42;;;;;;;0.10;0.10;;;4.90;99.90;;;;;;4940880;28;20216;-82
2021/04/07 08:08:09;;;;;;;0.00;0.00;;;4.90;99.90;;;;;;4950202;28;20199;-81
2021/04/07 08:10:37;;;;;;;0.00;0.00;;;4.90;99.90;;;;;;4959706;28;20185;-82
2021/04/07 08:13:08;;;;;;;0.10;0.10;;;4.90;99.90;;;;;;4954795;28;20203;-81
2021/04/07 08:15:34;;;;;;;0.10;0.10;;;4.90;99.90;;;;;;4949883;28;20190;-82
2021/04/07 08:18:00;;;;;;;0.00;0.00;;;4.90;99.90;;;;;;4957145;28;20251;-82
2021/04/07 08:20:28;;;;;;;0.10;0.10;;;4.80;99.90;;;;;;4975073;28;20181;-82
2021/04/07 08:22:55;;;;;;;0.10;0.10;;;4.90;99.90;;;;;;4965822;28;20211;-82
2021/04/07 08:25:22;;;;;;;0.10;0.10;;;4.80;99.90;;;;;;4938117;28;20664;-82
2021/04/07 08:27:54;;;;;;;0.10;0.10;;;4.70;99.90;;;;;;4939046;29;20708;-82
2021/04/07 08:30:22;;;;;;;0.10;0.10;;;4.70;99.90;;;;;;4948217;28;20212;-81
2021/04/07 08:32:50;;;;;;;0.10;0.10;;;4.90;99.90;;;;;;4961047;28;20348;-82
2021/04/07 08:35:18;;;;;;;1.07;0.37;;;4.90;99.90;;;;;;4971084;28;20177;-82
2021/04/07 08:37:43;;;;;;;0.10;0.10;;;4.80;99.90;;;;;;4974545;28;20181;-82
2021/04/07 08:40:14;;;;;;;0.00;0.00;;;4.80;99.90;;;;;;4956940;28;20199;-80
2021/04/07 08:42:40;;;;;;;0.10;0.10;;;4.80;99.90;;;;;;4952083;28;20293;-82
2021/04/07 08:45:09;;;;;;;0.03;0.03;;;4.70;99.90;;;;;;4956840;28;20288;-82
2021/04/07 08:47:46;;;;;;;0.30;0.30;;;4.80;99.90;;;;;;4974398;28;20266;-82
2021/04/07 08:50:14;;;;;;;0.20;0.20;;;4.90;99.90;;;;;;4951066;28;20283;-80
2021/04/07 08:52:48;;;;;;;0.10;0.10;;;5.10;99.90;;;;;;4952620;28;20217;-82
2021/04/07 08:55:14;;;;;;;3.20;0.50;;;5.50;99.90;;;;;;4944924;28;20729;-81
2021/04/07 08:57:41;;;;;;;0.10;0.10;;;5.80;99.90;;;;;;4946492;28;20281;-81
2021/04/07 09:00:12;;;;;;;0.10;0.10;;;6.20;99.90;;;;;;4953919;28;20538;-81
2021/04/07 09:02:48;;;;;;;0.17;0.17;;;6.30;99.90;;;;;;4963535;28;20218;-81
2021/04/07 09:05:14;;;;;;;0.47;0.20;;;6.10;99.90;;;;;;4962266;28;20209;-81
2021/04/07 09:07:42;;;;;;;0.20;0.20;;;6.00;99.90;;;;;;4969203;28;20217;-81
2021/04/07 09:10:13;;;;;;;0.10;0.10;;;6.00;99.90;;;;;;4938580;28;20705;-81
2021/04/07 09:12:41;;;;;;;0.10;0.10;;;6.10;99.90;;;;;;4962853;28;20705;-82
2021/04/07 09:15:14;;;;;;;0.07;0.07;;;6.10;99.90;;;;;;4937629;28;20181;-82
2021/04/07 09:17:48;;;;;;;0.70;0.30;;;6.10;99.90;;;;;;4941386;28;20189;-81
2021/04/07 09:20:36;;;;;;;0.00;0.00;;;6.00;99.90;;;;;;4941384;28;20187;-80
2021/04/07 09:23:25;;;;;;;4.00;0.30;;;5.80;99.90;;;;;;4970344;28;20295;-81
2021/04/07 09:25:55;;;;;;;5.57;0.40;;;5.70;99.90;;;;;;4955176;28;20187;-81
2021/04/07 09:28:36;;;;;;;0.10;0.10;;;5.30;99.90;;;;;;4945388;28;20195;-82
2021/04/07 09:31:10;;;;;;;0.10;0.10;;;5.40;99.90;;;;;;4941076;28;20600;-82
2021/04/07 09:33:38;;;;;;;0.07;0.07;;;5.50;99.90;;;;;;4969708;28;20223;-82
2021/04/07 09:36:05;;;;;;;0.20;0.20;;;5.50;99.90;;;;;;4965022;28;20184;-81
2021/04/07 09:38:31;;;;;;;0.10;0.10;;;5.50;99.90;;;;;;4966128;28;20187;-82
2021/04/07 09:41:11;;;;;;;0.10;0.10;;;5.70;99.90;;;;;;4945341;28;20198;-82
2021/04/07 09:43:37;;;;;;;0.47;0.47;;;5.60;99.90;;;;;;4949076;28;20191;-81
2021/04/07 09:46:05;;;;;;;0.03;0.03;;;5.60;99.90;;;;;;4954485;28;20203;-81
2021/04/07 09:48:58;;;;;;;0.60;0.50;;;5.50;99.90;;;;;;4948576;28;20185;-82
2021/04/07 09:51:34;;;;;;;0.10;0.10;;;5.40;99.90;;;;;;4937914;28;20732;-81
2021/04/07 09:54:23;;;;;;;0.00;0.00;;;5.40;99.90;;;;;;4966971;28;20739;-81
2021/04/07 09:56:48;;;;;;;0.10;0.10;;;5.40;99.90;;;;;;4962130;28;20187;-81
2021/04/07 09:59:14;;;;;;;0.53;0.27;;;5.30;99.90;;;;;;4966533;28;20182;-83
2021/04/07 10:01:40;;;;;;;0.20;0.20;;;5.20;99.90;;;;;;4961385;28;20574;-80
2021/04/07 10:04:08;;;;;;;0.10;0.10;;;5.20;99.90;;;;;;4969418;28;20200;-81
2021/04/07 10:06:34;;;;;;;0.10;0.10;;;5.20;99.90;;;;;;4968950;28;20645;-81
2021/04/07 10:09:06;;;;;;;0.10;0.10;;;5.10;99.90;;;;;;4964490;28;20278;-81
2021/04/07 10:11:34;;;;;;;3.83;0.57;;;5.10;99.90;;;;;;4953078;28;20911;-82
2021/04/07 10:14:00;;;;;;;0.10;0.10;;;5.00;99.90;;;;;;4966618;28;20356;-80
2021/04/07 10:16:32;;;;;;;0.20;0.20;;;4.80;99.90;;;;;;4945129;28;20213;-79
2021/04/07 10:18:59;;;;;;;0.10;0.10;;;4.70;99.90;;;;;;4960469;28;20254;-81
2021/04/07 10:21:26;;;;;;;1.07;0.30;;;4.70;99.90;;;;;;4948613;28;20209;-81
2021/04/07 10:23:55;;;;;;;1.83;1.07;;;4.60;99.90;;;;;;4944027;28;20621;-81
2021/04/07 10:26:21;;;;;;;9.73;0.40;;;4.50;99.90;;;;;;4943574;28;20190;-81
2021/04/07 10:28:57;;;;;;;0.10;0.10;;;4.40;99.90;;;;;;4939527;28;20657;-81
2021/04/07 10:31:23;;;;;;;0.00;0.00;;;4.20;99.90;;;;;;4944041;28;22258;-80
2021/04/07 10:33:49;;;;;;;0.10;0.10;;;4.10;99.90;;;;;;4940272;28;20223;-81
2021/04/07 10:36:14;;;;;;;0.20;0.20;;;4.00;99.90;;;;;;4949100;28;20190;-79
2021/04/07 10:38:41;;;;;;;0.00;0.00;;;3.90;99.90;;;;;;4958566;28;20207;-79
2021/04/07 10:41:07;;;;;;;1.50;0.70;;;3.90;99.90;;;;;;4953428;28;20708;-79
2021/04/07 10:43:34;;;;;;;0.10;0.10;;;4.00;99.90;;;;;;4958463;28;20652;-81
2021/04/07 10:46:02;;;;;;;0.30;0.20;;;4.20;99.90;;;;;;4963079;28;20818;-81
2021/04/07 10:48:28;;;;;;;0.10;0.10;;;4.20;99.90;;;;;;4963452;28;20225;-82
2021/04/07 10:50:56;;;;;;;0.00;0.00;;;4.30;99.90;;;;;;4962178;28;20188;-81
2021/04/07 10:53:41;;;;;;;0.20;0.20;;;4.40;99.90;;;;;;4948205;28;20244;-81
2021/04/07 10:56:18;;;;;;;0.77;0.40;;;4.50;99.90;;;;;;4942305;28;20270;-82
2021/04/07 10:59:11;;;;;;;0.10;0.10;;;4.50;99.90;;;;;;4960382;28;20665;-82
2021/04/07 11:01:39;;;;;;;0.10;0.10;;;4.70;99.90;;;;;;4941659;28;20212;-82
2021/04/07 11:04:15;;;;;;;1.60;0.67;;;4.60;99.90;;;;;;4970539;28;20197;-83
2021/04/07 11:06:41;;;;;;;0.10;0.10;;;4.50;99.90;;;;;;4955715;28;20189;-84
2021/04/07 11:09:07;;;;;;;0.33;0.33;;;4.50;99.90;;;;;;4948296;28;20197;-82
2021/04/07 11:11:33;;;;;;;0.60;0.10;;;4.50;99.90;;;;;;4945827;28;20210;-82
2021/04/07 11:14:04;;;;;;;0.00;0.00;;;4.50;99.90;;;;;;4954251;28;20253;-83
2021/04/07 11:16:34;;;;;;;0.00;0.00;;;4.50;99.90;;;;;;4970441;28;20178;-83
2021/04/07 11:19:35;;;;;;;0.20;0.20;;;4.50;99.90;;;;;;4972607;28;20188;-84
2021/04/07 11:22:01;;;;;;;0.10;0.10;;;4.50;99.90;;;;;;4946122;28;20204;-84
2021/04/07 11:24:50;;;;;;;0.10;0.10;;;4.60;99.90;;;;;;4976509;28;20266;-83
2021/04/07 11:27:16;;;;;;;0.10;0.10;;;4.60;99.90;;;;;;4974769;28;20310;-85
2021/04/07 11:33:07;;;;;;;0.00;0.00;;;4.70;99.90;;;;;;4969823;28;20275;-84
2021/04/07 11:35:39;;;;;;;0.00;0.00;;;4.70;99.90;;;;;;4971215;28;20177;-83
2021/04/07 11:38:07;;;;;;;0.10;0.10;;;4.80;99.90;;;;;;4956946;28;20217;-84
2021/04/07 11:41:39;;;;;;;0.10;0.10;;;4.80;99.90;;;;;;4974681;28;20188;-83
2021/04/07 11:43:36;;;;;;;0.10;0.10;;;4.90;99.90;;;;;;4973747;28;20264;-83
2021/04/07 11:46:02;;;;;;;1.03;0.07;;;5.10;99.90;;;;;;4953184;28;20225;-84
2021/04/07 11:48:27;;;;;;;0.10;0.10;;;5.10;99.90;;;;;;4975741;28;20195;-84
2021/04/07 11:50:53;;;;;;;0.10;0.10;;;5.00;99.90;;;;;;4955568;28;20687;-84
2021/04/07 11:53:18;;;;;;;0.00;0.00;;;4.90;99.90;;;;;;4953467;28;20583;-85
2021/04/07 11:56:07;;;;;;;0.50;0.50;;;4.80;99.90;;;;;;4970626;28;20627;-84
2021/04/07 11:58:33;;;;;;;0.00;0.00;;;4.80;99.90;;;;;;4954669;28;20853;-82
2021/04/07 12:01:00;;;;;;;0.00;0.00;;;4.80;99.90;;;;;;4949154;28;20275;-84
2021/04/07 12:03:56;;;;;;;0.70;0.27;;;4.80;99.90;;;;;;4958658;28;20185;-87
2021/04/07 12:06:21;;;;;;;0.10;0.10;;;4.80;99.90;;;;;;4957685;28;20201;-84
2021/04/07 12:08:47;;;;;;;0.03;0.03;;;4.80;99.90;;;;;;4958543;28;20787;-84
2021/04/07 12:11:13;;;;;;;0.00;0.00;;;4.80;99.90;;;;;;4957490;28;20188;-83
2021/04/07 12:13:58;;;;;;;0.10;0.10;;;4.80;99.90;;;;;;4950903;28;20212;-84
2021/04/07 12:16:24;;;;;;;0.10;0.10;;;4.90;99.90;;;;;;4960564;28;20209;-84
2021/04/07 12:18:49;;;;;;;0.10;0.10;;;5.00;99.90;;;;;;4974759;28;20914;-84
2021/04/07 12:21:16;;;;;;;0.10;0.10;;;5.00;99.90;;;;;;4956822;28;20296;-83
2021/04/07 12:23:43;;;;;;;0.10;0.10;;;5.00;99.90;;;;;;4975862;28;20184;-83
2021/04/07 12:26:11;;;;;;;0.30;0.30;;;4.90;99.90;;;;;;4969123;28;20193;-84
2021/04/07 12:28:36;;;;;;;0.00;0.00;;;4.70;99.90;;;;;;4954261;28;20200;-84
2021/04/07 12:31:02;;;;;;;0.10;0.10;;;4.70;99.90;;;;;;4957656;28;20748;-84
2021/04/07 12:33:29;;;;;;;0.10;0.10;;;4.70;99.90;;;;;;4956394;28;20299;-84
2021/04/07 12:35:55;;;;;;;0.10;0.10;;;4.70;99.90;;;;;;4949847;28;20206;-83
2021/04/07 12:38:40;;;;;;;0.00;0.00;;;4.70;99.90;;;;;;4973196;28;20643;-84
2021/04/07 12:41:24;;;;;;;0.10;0.10;;;4.70;99.90;;;;;;4949197;28;20222;-84
2021/04/07 12:43:49;;;;;;;0.33;0.30;;;4.60;99.90;;;;;;4959337;28;20660;-83
2021/04/07 12:46:16;;;;;;;0.10;0.10;;;4.60;99.90;;;;;;4969246;28;20201;-84
2021/04/07 12:48:43;;;;;;;0.10;0.10;;;4.60;99.90;;;;;;4950839;29;20286;-84
2021/04/07 12:51:09;;;;;;;0.10;0.10;;;4.60;99.90;;;;;;4968565;28;20184;-83
2021/04/07 12:53:35;;;;;;;0.00;0.00;;;4.60;99.90;;;;;;4974602;28;20207;-83
2021/04/07 12:56:00;;;;;;;0.30;0.30;;;4.70;99.90;;;;;;4958819;28;20275;-83
2021/04/07 12:58:26;;;;;;;0.10;0.10;;;4.60;99.90;;;;;;4951370;29;20190;-83
2021/04/07 13:00:51;;;;;;;0.10;0.10;;;4.70;99.90;;;;;;4949560;28;20173;-84
2021/04/07 13:03:17;;;;;;;0.10;0.10;;;4.70;99.90;;;;;;4967584;28;20209;-84
2021/04/07 13:05:43;;;;;;;0.30;0.30;;;4.70;99.90;;;;;;4968265;28;20244;-83
2021/04/07 13:08:09;;;;;;;0.10;0.10;;;4.40;99.90;;;;;;4950978;29;20191;-83
2021/04/07 13:10:38;;;;;;;0.00;0.00;;;4.50;99.90;;;;;;4968205;28;20194;-84
2021/04/07 13:13:04;;;;;;;0.10;0.10;;;4.40;99.90;;;;;;4949412;29;20243;-84
2021/04/07 13:15:29;;;;;;;0.00;0.00;;;4.30;99.90;;;;;;4951295;28;20648;-84
2021/04/07 13:17:55;;;;;;;0.10;0.10;;;4.30;99.90;;;;;;4953420;29;20767;-84